Time;durP1;ratioP1;P1;durP2;ratioP2;P2;SDS_P1;SDS_P2;PMS_P1;PMS_P2;Temp;Humidity;BMP_temperature;BMP_pressure;BME280_temperature;BME280_humidity;BME280_pressure;Samples;Min_cycle;Max_cycle;Signal;HPM_P1;HPM_P2
2021/09/11 00:00:28;;;;;;;0.00;0.00;;;17.70;99.90;;;;;;10330182;28;20111;-59
2021/09/11 00:05:29;;;;;;;0.00;0.00;;;17.80;99.90;;;;;;10328546;28;20121;-59
2021/09/11 00:10:32;;;;;;;0.00;0.00;;;17.70;99.90;;;;;;10333490;28;20086;-58
2021/09/11 00:15:33;;;;;;;0.00;0.00;;;17.80;99.90;;;;;;10326095;28;20061;-58
2021/09/11 00:20:35;;;;;;;0.00;0.00;;;17.70;99.90;;;;;;10316097;28;20046;-60
2021/09/11 00:25:37;;;;;;;0.00;0.00;;;17.80;99.90;;;;;;10334964;28;20142;-59
2021/09/11 00:30:39;;;;;;;0.00;0.00;;;17.80;99.90;;;;;;10330492;28;20073;-59
2021/09/11 00:35:40;;;;;;;0.00;0.00;;;17.70;99.90;;;;;;10332020;28;20082;-59
2021/09/11 00:40:42;;;;;;;0.00;0.00;;;17.60;99.90;;;;;;10332007;28;20078;-59
2021/09/11 00:45:43;;;;;;;0.00;0.00;;;17.60;99.90;;;;;;10330896;28;20207;-59
2021/09/11 00:50:46;;;;;;;0.00;0.00;;;17.60;99.90;;;;;;10331943;28;20730;-60
2021/09/11 00:55:48;;;;;;;0.00;0.00;;;17.60;99.90;;;;;;10329411;28;20065;-60
2021/09/11 01:00:49;;;;;;;0.00;0.00;;;17.60;99.90;;;;;;10329326;28;20107;-59
2021/09/11 01:05:51;;;;;;;0.00;0.00;;;17.60;99.90;;;;;;10328138;28;20080;-61
2021/09/11 01:10:53;;;;;;;0.00;0.00;;;17.60;99.90;;;;;;10324958;28;20694;-60
2021/09/11 01:15:58;;;;;;;0.00;0.00;;;17.60;99.90;;;;;;10332671;28;20116;-59
2021/09/11 01:21:01;;;;;;;0.00;0.00;;;17.60;99.90;;;;;;10325739;28;20129;-59
2021/09/11 01:26:03;;;;;;;0.00;0.00;;;17.50;99.90;;;;;;10325455;28;20050;-60
2021/09/11 01:31:04;;;;;;;0.00;0.00;;;17.40;99.90;;;;;;10327837;28;20073;-60
2021/09/11 01:36:06;;;;;;;0.00;0.00;;;17.40;99.90;;;;;;10323495;28;20050;-59
2021/09/11 01:41:09;;;;;;;0.00;0.00;;;17.40;99.90;;;;;;10327313;28;20101;-60
2021/09/11 01:46:12;;;;;;;0.00;0.00;;;17.40;99.90;;;;;;10331811;28;20054;-59
2021/09/11 01:51:14;;;;;;;0.00;0.00;;;17.40;99.90;;;;;;10325346;28;20720;-59
2021/09/11 01:56:15;;;;;;;0.00;0.00;;;17.50;99.90;;;;;;10331065;28;20053;-60
2021/09/11 02:01:17;;;;;;;0.00;0.00;;;17.50;99.90;;;;;;10329206;28;20131;-60
2021/09/11 02:06:21;;;;;;;0.00;0.00;;;17.50;99.90;;;;;;10329032;28;20056;-60
2021/09/11 02:11:23;;;;;;;0.00;0.00;;;17.50;99.90;;;;;;10326578;28;20046;-58
2021/09/11 02:16:24;;;;;;;0.00;0.00;;;17.40;99.90;;;;;;10323792;28;21050;-59
2021/09/11 02:21:26;;;;;;;0.00;0.00;;;17.50;99.90;;;;;;10335068;28;20124;-60
2021/09/11 02:26:28;;;;;;;0.00;0.00;;;17.50;99.90;;;;;;10325641;28;20112;-60
2021/09/11 02:31:30;;;;;;;0.00;0.00;;;17.40;99.90;;;;;;10319971;28;20100;-60
2021/09/11 02:36:31;;;;;;;0.00;0.00;;;17.40;99.90;;;;;;10327474;28;20650;-60
2021/09/11 02:41:34;;;;;;;0.00;0.00;;;17.40;99.90;;;;;;10324448;28;20418;-60
2021/09/11 02:46:36;;;;;;;0.00;0.00;;;17.40;99.90;;;;;;10325418;28;21928;-61
2021/09/11 02:51:38;;;;;;;0.00;0.00;;;17.30;99.90;;;;;;10323924;28;20046;-60
2021/09/11 02:56:40;;;;;;;0.00;0.00;;;17.40;99.90;;;;;;10323789;28;20094;-60
2021/09/11 03:01:41;;;;;;;0.00;0.00;;;17.40;99.90;;;;;;10322322;28;20140;-60
2021/09/11 03:06:43;;;;;;;0.00;0.00;;;17.30;99.90;;;;;;10325506;28;20120;-59
2021/09/11 03:11:45;;;;;;;0.00;0.00;;;17.30;99.90;;;;;;10323740;28;20112;-60
2021/09/11 03:16:46;;;;;;;0.00;0.00;;;17.20;99.90;;;;;;10328775;28;20066;-60
2021/09/11 03:21:48;;;;;;;0.00;0.00;;;17.20;99.90;;;;;;10334657;28;20718;-59
2021/09/11 03:26:50;;;;;;;0.00;0.00;;;17.30;99.90;;;;;;10335965;28;20073;-59
2021/09/11 03:31:51;;;;;;;0.00;0.00;;;17.20;99.90;;;;;;10335024;28;20111;-60
2021/09/11 03:36:53;;;;;;;0.00;0.00;;;17.20;99.90;;;;;;10327462;28;20042;-59
2021/09/11 03:41:55;;;;;;;0.00;0.00;;;17.20;99.90;;;;;;10333924;28;20453;-61
2021/09/11 03:46:57;;;;;;;0.00;0.00;;;17.10;99.90;;;;;;10330851;28;20573;-60
2021/09/11 03:51:58;;;;;;;0.00;0.00;;;17.10;99.90;;;;;;10333923;28;20508;-59
2021/09/11 03:57:00;;;;;;;0.00;0.00;;;17.10;99.90;;;;;;10334584;28;20132;-59
2021/09/11 04:02:02;;;;;;;0.00;0.00;;;17.10;99.90;;;;;;10316454;28;20128;-59
2021/09/11 04:07:04;;;;;;;0.00;0.00;;;17.00;99.90;;;;;;10331157;28;20053;-60
2021/09/11 04:12:06;;;;;;;0.00;0.00;;;17.00;99.90;;;;;;10314381;28;20124;-59
2021/09/11 04:17:08;;;;;;;0.30;0.00;;;17.10;99.90;;;;;;10328823;28;20050;-60
2021/09/11 04:22:09;;;;;;;0.00;0.00;;;17.20;99.90;;;;;;10334534;28;20073;-61
2021/09/11 04:27:11;;;;;;;0.00;0.00;;;17.20;99.90;;;;;;10327622;28;20050;-59
2021/09/11 04:32:13;;;;;;;0.00;0.00;;;17.20;99.90;;;;;;10335395;28;20498;-61
2021/09/11 04:37:15;;;;;;;1.75;0.35;;;17.20;99.90;;;;;;10325558;28;20112;-60
2021/09/11 04:42:17;;;;;;;0.00;0.00;;;17.20;99.90;;;;;;10326972;28;20074;-60
2021/09/11 04:47:18;;;;;;;0.00;0.00;;;17.10;99.90;;;;;;10332127;28;20092;-59
2021/09/11 04:52:20;;;;;;;0.00;0.00;;;17.10;99.90;;;;;;10327165;28;20078;-60
2021/09/11 04:57:22;;;;;;;0.00;0.00;;;17.10;99.90;;;;;;10332514;28;20112;-59
2021/09/11 05:02:24;;;;;;;0.00;0.00;;;17.10;99.90;;;;;;10326219;28;20050;-62
2021/09/11 05:07:26;;;;;;;0.00;0.00;;;17.10;99.90;;;;;;10326265;28;20137;-60
2021/09/11 05:12:28;;;;;;;0.00;0.00;;;17.10;99.90;;;;;;10328683;28;20119;-60
2021/09/11 05:17:30;;;;;;;0.00;0.00;;;17.10;99.90;;;;;;10327396;28;20046;-59
2021/09/11 05:22:31;;;;;;;0.00;0.00;;;17.10;99.90;;;;;;10328726;28;20551;-61
2021/09/11 05:27:33;;;;;;;0.00;0.00;;;17.20;99.90;;;;;;10330374;28;20563;-59
2021/09/11 05:32:35;;;;;;;0.00;0.00;;;17.20;99.90;;;;;;10330424;28;20124;-59
2021/09/11 05:37:37;;;;;;;0.00;0.00;;;17.20;99.90;;;;;;10327991;28;20493;-60
2021/09/11 05:42:39;;;;;;;0.00;0.00;;;17.30;99.90;;;;;;10327207;28;20050;-59
2021/09/11 05:47:40;;;;;;;0.00;0.00;;;17.30;99.90;;;;;;10329605;28;20057;-60
2021/09/11 05:52:42;;;;;;;0.00;0.00;;;17.30;99.90;;;;;;10325850;28;20066;-60
2021/09/11 05:57:43;;;;;;;0.00;0.00;;;17.30;99.90;;;;;;10323405;28;20135;-60
2021/09/11 06:02:45;;;;;;;0.00;0.00;;;17.40;99.90;;;;;;10326094;28;20107;-59
2021/09/11 06:07:48;;;;;;;0.00;0.00;;;17.40;99.90;;;;;;10328533;28;20362;-59
2021/09/11 06:12:49;;;;;;;0.00;0.00;;;17.40;99.90;;;;;;10325823;28;20050;-60
2021/09/11 06:17:52;;;;;;;0.00;0.00;;;17.40;99.90;;;;;;10325827;28;20151;-60
2021/09/11 06:22:54;;;;;;;0.00;0.00;;;17.40;99.90;;;;;;10306363;28;20082;-59
2021/09/11 06:27:57;;;;;;;0.00;0.00;;;17.50;99.90;;;;;;10311456;28;20049;-59
2021/09/11 06:32:58;;;;;;;0.00;0.00;;;17.50;99.90;;;;;;10330310;28;20049;-59
2021/09/11 06:38:00;;;;;;;0.00;0.00;;;17.60;99.90;;;;;;10329024;28;20106;-60
2021/09/11 06:43:02;;;;;;;0.00;0.00;;;17.60;99.90;;;;;;10326972;28;20100;-59
2021/09/11 06:48:04;;;;;;;0.00;0.00;;;17.80;99.90;;;;;;10328920;28;20514;-60
2021/09/11 06:53:06;;;;;;;0.00;0.00;;;17.80;99.90;;;;;;10329960;28;20046;-60
2021/09/11 06:58:08;;;;;;;0.00;0.00;;;17.80;99.90;;;;;;10342594;28;20047;-61
2021/09/11 07:03:09;;;;;;;0.00;0.00;;;17.90;99.90;;;;;;10334070;28;20517;-60
2021/09/11 07:08:11;;;;;;;0.00;0.00;;;17.90;99.90;;;;;;10332320;28;20536;-60
2021/09/11 07:13:13;;;;;;;0.00;0.00;;;17.90;99.90;;;;;;10331194;28;20138;-60
2021/09/11 07:18:14;;;;;;;0.00;0.00;;;18.00;99.90;;;;;;10333717;28;20155;-60
2021/09/11 07:23:16;;;;;;;0.00;0.00;;;18.10;99.90;;;;;;10333893;28;20052;-60
2021/09/11 07:28:18;;;;;;;0.00;0.00;;;18.10;99.90;;;;;;10331849;28;20074;-60
2021/09/11 07:33:19;;;;;;;0.00;0.00;;;18.10;99.90;;;;;;10330516;28;20050;-60
2021/09/11 07:38:21;;;;;;;0.00;0.00;;;18.10;99.90;;;;;;10334987;28;20084;-60
2021/09/11 07:43:22;;;;;;;0.00;0.00;;;18.10;99.90;;;;;;10329068;28;20136;-59
2021/09/11 07:48:24;;;;;;;0.00;0.00;;;18.10;99.90;;;;;;10331528;28;20135;-59
2021/09/11 07:53:26;;;;;;;0.00;0.00;;;18.10;99.90;;;;;;10327606;28;20418;-60
2021/09/11 07:58:28;;;;;;;0.00;0.00;;;18.10;99.90;;;;;;10325765;28;20128;-58
2021/09/11 08:03:29;;;;;;;0.00;0.00;;;18.10;99.90;;;;;;10329460;28;20116;-62
2021/09/11 08:08:31;;;;;;;0.00;0.00;;;18.20;99.90;;;;;;10328240;28;20054;-62
2021/09/11 08:13:34;;;;;;;0.00;0.00;;;18.20;99.90;;;;;;10333770;28;20089;-62
2021/09/11 08:18:35;;;;;;;0.00;0.00;;;18.20;99.90;;;;;;10332917;28;20105;-63
2021/09/11 08:23:38;;;;;;;1.35;0.70;;;18.30;99.90;;;;;;10330382;28;20087;-62
2021/09/11 08:28:39;;;;;;;0.00;0.00;;;18.40;99.90;;;;;;10334422;28;20085;-62
2021/09/11 08:33:42;;;;;;;0.00;0.00;;;18.60;99.90;;;;;;10329528;28;20617;-62
2021/09/11 08:38:44;;;;;;;0.00;0.00;;;18.80;99.90;;;;;;10331858;28;20408;-62
2021/09/11 08:43:45;;;;;;;0.00;0.00;;;18.90;99.90;;;;;;10329911;28;20054;-62
2021/09/11 08:48:47;;;;;;;0.00;0.00;;;19.00;99.90;;;;;;10328364;28;20911;-62
2021/09/11 08:53:49;;;;;;;0.00;0.00;;;19.20;99.90;;;;;;10329145;28;20390;-59
2021/09/11 08:59:06;;;;;;;0.00;0.00;;;19.40;99.90;;;;;;10324551;28;20125;-60
2021/09/11 09:04:09;;;;;;;0.00;0.00;;;19.60;99.90;;;;;;10324268;28;20152;-59
2021/09/11 09:09:14;;;;;;;0.00;0.00;;;19.60;99.90;;;;;;10331097;28;20085;-59
2021/09/11 09:14:19;;;;;;;0.00;0.00;;;19.70;99.90;;;;;;10326802;28;20115;-59
2021/09/11 09:19:25;;;;;;;0.00;0.00;;;19.80;99.90;;;;;;10332283;28;20480;-60
2021/09/11 09:24:36;;;;;;;0.00;0.00;;;19.80;99.90;;;;;;10329058;28;20404;-60
2021/09/11 09:29:40;;;;;;;0.00;0.00;;;19.60;99.90;;;;;;10325944;28;20046;-59
2021/09/11 09:34:48;;;;;;;0.00;0.00;;;19.60;99.90;;;;;;10313335;28;20077;-59
2021/09/11 09:39:52;;;;;;;0.10;0.10;;;20.00;99.90;;;;;;10323062;28;20109;-58
2021/09/11 09:44:55;;;;;;;0.00;0.00;;;20.10;99.90;;;;;;10326468;28;20452;-58
2021/09/11 09:50:08;;;;;;;0.00;0.00;;;20.50;99.90;;;;;;10321300;28;20090;-57
2021/09/11 09:55:10;;;;;;;0.00;0.00;;;20.80;99.90;;;;;;10324234;28;20069;-58
2021/09/11 10:00:12;;;;;;;0.00;0.00;;;20.90;99.90;;;;;;10324597;28;20054;-58
2021/09/11 10:05:15;;;;;;;0.00;0.00;;;21.10;99.90;;;;;;10324948;28;20119;-58
2021/09/11 10:10:17;;;;;;;3.20;1.92;;;21.60;99.90;;;;;;10331606;28;20090;-58
2021/09/11 10:15:28;;;;;;;5.18;3.72;;;21.50;99.90;;;;;;10326750;28;20050;-58
2021/09/11 10:21:08;;;;;;;5.28;4.00;;;21.60;99.90;;;;;;10322098;28;20187;-58
2021/09/11 10:27:11;;;;;;;4.45;3.40;;;21.50;99.90;;;;;;10320587;28;20501;-58
2021/09/11 10:32:26;;;;;;;4.50;3.13;;;21.90;99.90;;;;;;10171233;29;20107;-58
2021/09/11 10:37:39;;;;;;;4.20;3.25;;;22.60;99.90;;;;;;10295548;28;20124;-58
2021/09/11 10:43:01;;;;;;;5.53;3.85;;;22.10;99.90;;;;;;10332713;28;20504;-58
2021/09/11 10:48:06;;;;;;;3.22;2.70;;;22.20;99.90;;;;;;10325274;28;20069;-58
2021/09/11 10:53:24;;;;;;;3.95;2.70;;;22.30;99.90;;;;;;10326191;28;20050;-58
2021/09/11 10:58:26;;;;;;;6.47;2.90;;;22.70;99.90;;;;;;10326507;28;20864;-58
2021/09/11 11:03:28;;;;;;;2.60;2.40;;;22.30;99.90;;;;;;10321558;28;20073;-58
2021/09/11 11:08:31;;;;;;;4.35;2.55;;;22.00;99.90;;;;;;10332432;28;20053;-59
2021/09/11 11:13:35;;;;;;;4.13;2.70;;;21.80;99.90;;;;;;10321461;28;20139;-58
2021/09/11 11:18:47;;;;;;;9.45;5.47;;;21.70;99.90;;;;;;10329073;28;20073;-62
2021/09/11 11:23:48;;;;;;;0.20;0.05;;;20.40;99.90;;;;;;10323026;28;20498;-59
2021/09/11 11:28:52;;;;;;;0.00;0.00;;;19.00;99.90;;;;;;10323398;28;20187;-60
2021/09/11 11:33:54;;;;;;;0.00;0.00;;;18.80;99.90;;;;;;10327843;28;20701;-59
2021/09/11 11:38:56;;;;;;;0.00;0.00;;;18.80;99.90;;;;;;10329162;28;20506;-59
2021/09/11 11:43:58;;;;;;;0.00;0.00;;;18.40;99.90;;;;;;10327144;28;20509;-59
2021/09/11 11:48:59;;;;;;;0.00;0.00;;;18.30;99.90;;;;;;10332720;28;20042;-59
2021/09/11 11:54:01;;;;;;;0.00;0.00;;;18.10;99.90;;;;;;10329706;28;20088;-59
2021/09/11 11:59:03;;;;;;;0.00;0.00;;;17.80;99.90;;;;;;10334476;28;20058;-58
2021/09/11 12:04:15;;;;;;;0.00;0.00;;;17.70;99.90;;;;;;10329597;28;20057;-59
2021/09/11 12:09:17;;;;;;;0.00;0.00;;;17.90;99.90;;;;;;10326826;28;20113;-58
2021/09/11 12:14:20;;;;;;;0.00;0.00;;;17.90;99.90;;;;;;10331162;28;20114;-58
2021/09/11 12:19:21;;;;;;;0.00;0.00;;;17.90;99.90;;;;;;10330120;28;20050;-59
2021/09/11 12:24:28;;;;;;;0.00;0.00;;;18.00;99.90;;;;;;10330871;28;20058;-59
2021/09/11 12:29:30;;;;;;;0.00;0.00;;;18.10;99.90;;;;;;10331087;28;20046;-58
2021/09/11 12:34:42;;;;;;;0.00;0.00;;;18.00;99.90;;;;;;10329613;28;20113;-59
2021/09/11 12:39:44;;;;;;;0.00;0.00;;;18.30;99.90;;;;;;10330760;28;20085;-59
2021/09/11 12:44:46;;;;;;;0.00;0.00;;;18.80;99.90;;;;;;10328085;28;20128;-59
2021/09/11 12:49:47;;;;;;;0.00;0.00;;;18.70;99.90;;;;;;10328020;28;20042;-59
2021/09/11 12:54:49;;;;;;;0.00;0.00;;;18.80;99.90;;;;;;10327502;28;20077;-59
2021/09/11 12:59:50;;;;;;;0.00;0.00;;;19.20;99.90;;;;;;10327160;28;20096;-60
2021/09/11 13:04:55;;;;;;;0.00;0.00;;;19.30;99.90;;;;;;10326034;28;20085;-58
2021/09/11 13:09:57;;;;;;;0.00;0.00;;;19.40;99.90;;;;;;10321192;28;20135;-58
2021/09/11 13:14:58;;;;;;;0.00;0.00;;;20.00;99.90;;;;;;10328737;28;20049;-59
2021/09/11 13:20:00;;;;;;;0.00;0.00;;;20.30;99.90;;;;;;10328203;28;20393;-58
2021/09/11 13:25:02;;;;;;;0.00;0.00;;;20.80;99.90;;;;;;10327775;28;20047;-58
2021/09/11 13:30:04;;;;;;;0.00;0.00;;;20.80;99.90;;;;;;10329233;28;20058;-58
2021/09/11 13:35:06;;;;;;;0.00;0.00;;;21.00;99.90;;;;;;10326327;28;20386;-58
2021/09/11 13:40:10;;;;;;;0.00;0.00;;;20.70;99.90;;;;;;10330165;28;20514;-59
2021/09/11 13:45:11;;;;;;;0.00;0.00;;;20.60;99.90;;;;;;10330498;28;20043;-58
2021/09/11 13:50:13;;;;;;;0.00;0.00;;;20.40;99.90;;;;;;10323126;28;20132;-58
2021/09/11 13:55:29;;;;;;;0.00;0.00;;;20.60;99.90;;;;;;10326260;28;20127;-59
2021/09/11 14:00:31;;;;;;;0.00;0.00;;;20.80;99.90;;;;;;10323164;28;20081;-59
2021/09/11 14:05:33;;;;;;;0.00;0.00;;;20.80;99.90;;;;;;10324047;28;20046;-59
2021/09/11 14:10:35;;;;;;;0.00;0.00;;;20.70;99.90;;;;;;10322947;28;20412;-60
2021/09/11 14:15:36;;;;;;;0.00;0.00;;;20.80;99.90;;;;;;10308197;28;20378;-59
2021/09/11 14:20:38;;;;;;;0.00;0.00;;;21.10;99.90;;;;;;10324889;28;20390;-61
2021/09/11 14:25:43;;;;;;;0.00;0.00;;;21.70;99.90;;;;;;10326402;28;20129;-62
2021/09/11 14:30:45;;;;;;;0.00;0.00;;;21.40;99.90;;;;;;10324511;28;20136;-61
2021/09/11 14:35:47;;;;;;;0.00;0.00;;;21.30;99.90;;;;;;10330167;28;20062;-61
2021/09/11 14:40:49;;;;;;;0.00;0.00;;;22.10;99.90;;;;;;10321675;28;20074;-60
2021/09/11 14:45:51;;;;;;;0.00;0.00;;;22.80;99.90;;;;;;10326954;28;20054;-63
2021/09/11 14:50:53;;;;;;;0.00;0.00;;;22.70;99.90;;;;;;10328603;28;20081;-61
2021/09/11 14:55:55;;;;;;;0.00;0.00;;;22.60;99.90;;;;;;10325307;28;20038;-60
2021/09/11 15:00:57;;;;;;;0.00;0.00;;;22.30;99.90;;;;;;10317648;28;20587;-60
2021/09/11 15:05:59;;;;;;;0.00;0.00;;;22.80;99.90;;;;;;10321963;28;20226;-60
2021/09/11 15:11:01;;;;;;;0.00;0.00;;;23.10;99.90;;;;;;10325468;28;20148;-60
2021/09/11 15:16:03;;;;;;;0.00;0.00;;;22.60;99.90;;;;;;10335293;28;20515;-60
2021/09/11 15:21:04;;;;;;;0.00;0.00;;;22.10;99.90;;;;;;10336597;28;20062;-60
2021/09/11 15:26:06;;;;;;;0.00;0.00;;;21.90;99.90;;;;;;10334662;28;20477;-60
2021/09/11 15:31:08;;;;;;;0.00;0.00;;;21.70;99.90;;;;;;10332773;28;20085;-60
2021/09/11 15:36:09;;;;;;;0.00;0.00;;;21.60;99.90;;;;;;10326285;28;20054;-61
2021/09/11 15:41:11;;;;;;;0.00;0.00;;;21.30;99.90;;;;;;10328292;28;20065;-61
2021/09/11 15:46:13;;;;;;;0.00;0.00;;;21.30;99.90;;;;;;10330420;28;20937;-61
2021/09/11 15:51:15;;;;;;;0.00;0.00;;;21.20;99.90;;;;;;10327199;28;20479;-61
2021/09/11 15:56:16;;;;;;;0.00;0.00;;;21.10;99.90;;;;;;10330919;28;20066;-61
2021/09/11 16:01:20;;;;;;;0.00;0.00;;;20.80;99.90;;;;;;10326684;28;20081;-61
2021/09/11 16:06:22;;;;;;;0.00;0.00;;;20.70;99.90;;;;;;10326976;28;20045;-60
2021/09/11 16:11:23;;;;;;;0.00;0.00;;;20.60;99.90;;;;;;10324182;28;20112;-60
2021/09/11 16:16:25;;;;;;;0.00;0.00;;;20.50;99.90;;;;;;10328433;28;20054;-60
2021/09/11 16:21:27;;;;;;;0.00;0.00;;;20.60;99.90;;;;;;10329935;28;20081;-60
2021/09/11 16:26:29;;;;;;;0.00;0.00;;;20.60;99.90;;;;;;10326833;28;20543;-61
2021/09/11 16:31:30;;;;;;;0.00;0.00;;;20.60;99.90;;;;;;10332508;28;20108;-61
2021/09/11 16:36:32;;;;;;;1.40;0.63;;;20.60;99.90;;;;;;10329421;28;20105;-61
2021/09/11 16:41:34;;;;;;;3.88;1.20;;;20.60;99.90;;;;;;10330215;28;20141;-60
2021/09/11 16:46:37;;;;;;;6.95;1.42;;;20.60;99.90;;;;;;10332476;28;20057;-62
2021/09/11 16:51:39;;;;;;;3.40;1.88;;;20.60;99.90;;;;;;10329477;28;20049;-61
2021/09/11 16:56:41;;;;;;;4.70;2.65;;;20.60;99.90;;;;;;10326737;28;20078;-61
2021/09/11 17:01:42;;;;;;;5.25;3.15;;;20.50;99.90;;;;;;10325275;28;20719;-61
2021/09/11 17:06:44;;;;;;;7.53;3.55;;;20.50;99.90;;;;;;10325445;28;20113;-60
2021/09/11 17:11:46;;;;;;;6.65;3.33;;;20.50;99.90;;;;;;10321006;28;20587;-61
2021/09/11 17:16:47;;;;;;;6.50;4.03;;;20.40;99.90;;;;;;10324221;28;20046;-60
2021/09/11 17:21:51;;;;;;;5.38;3.80;;;20.40;99.90;;;;;;10323638;28;20050;-59
2021/09/11 17:26:54;;;;;;;8.15;4.45;;;20.30;99.90;;;;;;10323625;28;20485;-61
2021/09/11 17:31:56;;;;;;;7.57;4.47;;;20.30;99.90;;;;;;10322511;28;20077;-60
2021/09/11 17:37:00;;;;;;;13.25;4.38;;;20.20;99.90;;;;;;10324257;28;20132;-59
2021/09/11 17:42:01;;;;;;;6.55;3.63;;;20.10;99.90;;;;;;10322428;28;20520;-59
2021/09/11 17:47:03;;;;;;;6.32;4.88;;;20.10;99.90;;;;;;10316585;28;20060;-61
2021/09/11 17:52:05;;;;;;;6.32;4.00;;;20.00;99.90;;;;;;10315156;28;20100;-59
2021/09/11 17:57:07;;;;;;;9.90;5.22;;;19.90;99.90;;;;;;10325961;28;20073;-60
2021/09/11 18:02:08;;;;;;;8.18;5.22;;;19.90;99.90;;;;;;10324264;28;20069;-60
2021/09/11 18:07:11;;;;;;;8.23;4.80;;;19.80;99.90;;;;;;10321656;28;20366;-59
2021/09/11 18:12:12;;;;;;;7.90;4.65;;;19.80;99.90;;;;;;10324703;28;20058;-59
2021/09/11 18:17:14;;;;;;;10.13;6.45;;;19.70;99.90;;;;;;10325314;28;20507;-59
2021/09/11 18:22:16;;;;;;;8.57;4.95;;;19.70;99.90;;;;;;10325516;28;20112;-59
2021/09/11 18:27:17;;;;;;;8.52;4.70;;;19.70;99.90;;;;;;10325287;28;20053;-58
2021/09/11 18:32:34;;;;;;;10.88;5.13;;;19.50;99.90;;;;;;10324675;28;20049;-59
2021/09/11 18:37:36;;;;;;;7.97;4.55;;;19.50;99.90;;;;;;10322499;28;20108;-58
2021/09/11 18:42:38;;;;;;;8.68;4.95;;;19.40;99.90;;;;;;10321320;28;20054;-59
2021/09/11 18:47:39;;;;;;;10.65;6.38;;;19.30;99.90;;;;;;10328979;28;20684;-59
2021/09/11 18:52:41;;;;;;;9.38;5.63;;;19.30;99.90;;;;;;10333562;28;20104;-57
2021/09/11 18:57:43;;;;;;;9.30;5.47;;;19.10;99.90;;;;;;10334010;28;20074;-58
2021/09/11 19:02:45;;;;;;;8.18;5.22;;;19.00;99.90;;;;;;10327247;28;20656;-58
2021/09/11 19:07:51;;;;;;;10.80;5.88;;;19.00;99.90;;;;;;10329393;28;20042;-58
2021/09/11 19:12:54;;;;;;;10.13;5.68;;;18.90;99.90;;;;;;10330687;28;20065;-58
2021/09/11 19:17:57;;;;;;;9.40;5.13;;;18.80;99.90;;;;;;10333106;28;20046;-57
2021/09/11 19:23:00;;;;;;;7.72;4.78;;;18.60;99.90;;;;;;10334452;28;20096;-59
2021/09/11 19:28:02;;;;;;;9.10;5.50;;;18.50;99.90;;;;;;10331988;28;20049;-58
2021/09/11 19:33:03;;;;;;;12.98;6.70;;;18.40;99.90;;;;;;10332824;28;20073;-57
2021/09/11 19:38:06;;;;;;;10.93;7.20;;;18.30;99.90;;;;;;10327960;28;20058;-57
2021/09/11 19:43:08;;;;;;;14.30;7.13;;;18.20;99.90;;;;;;10335068;28;20077;-58
2021/09/11 19:48:10;;;;;;;14.15;7.03;;;18.00;99.90;;;;;;10332539;28;20455;-59
2021/09/11 19:53:11;;;;;;;12.25;7.50;;;17.90;99.90;;;;;;10330564;28;20569;-57
2021/09/11 19:58:13;;;;;;;13.98;8.23;;;17.80;99.90;;;;;;10328532;28;20049;-57
2021/09/11 20:03:15;;;;;;;12.55;6.18;;;17.70;99.90;;;;;;10327929;28;20054;-57
2021/09/11 20:08:17;;;;;;;15.88;6.75;;;17.60;99.90;;;;;;10317619;28;20054;-57
2021/09/11 20:13:18;;;;;;;15.00;6.45;;;17.50;99.90;;;;;;10329303;28;20508;-57
2021/09/11 20:18:20;;;;;;;10.00;5.93;;;17.40;99.90;;;;;;10328780;28;20046;-57
2021/09/11 20:23:22;;;;;;;18.45;8.57;;;17.30;99.90;;;;;;10335911;28;20058;-59
2021/09/11 20:28:24;;;;;;;11.98;5.70;;;17.30;99.90;;;;;;10326309;28;22375;-59
2021/09/11 20:33:26;;;;;;;8.55;6.00;;;17.10;99.90;;;;;;10333134;28;20065;-58
2021/09/11 20:38:27;;;;;;;15.05;6.10;;;17.10;99.90;;;;;;10331674;28;20140;-57
2021/09/11 20:43:29;;;;;;;8.82;5.88;;;17.00;99.90;;;;;;10327795;28;20109;-58
2021/09/11 20:48:30;;;;;;;11.73;6.32;;;17.00;99.90;;;;;;10331424;28;20136;-59
2021/09/11 20:53:34;;;;;;;8.80;5.18;;;16.90;99.90;;;;;;10327588;28;20050;-59
2021/09/11 20:58:35;;;;;;;9.63;5.90;;;16.80;99.90;;;;;;10329314;28;20555;-60
2021/09/11 21:03:37;;;;;;;9.75;5.47;;;16.70;99.90;;;;;;10320391;28;20109;-59
2021/09/11 21:08:39;;;;;;;10.80;5.25;;;16.70;99.90;;;;;;10328979;28;20129;-59
2021/09/11 21:13:41;;;;;;;8.48;4.90;;;16.60;99.90;;;;;;10307713;28;20722;-59
2021/09/11 21:18:43;;;;;;;12.98;5.15;;;16.50;99.90;;;;;;10326682;28;20157;-58
2021/09/11 21:23:44;;;;;;;8.68;4.75;;;16.50;99.90;;;;;;10326227;28;20100;-58
2021/09/11 21:28:46;;;;;;;10.80;6.40;;;16.40;99.90;;;;;;10329698;28;20049;-58
2021/09/11 21:33:54;;;;;;;10.20;4.93;;;16.40;99.90;;;;;;10376795;28;20387;-58
2021/09/11 21:38:56;;;;;;;12.25;5.57;;;16.30;99.90;;;;;;10378294;28;20038;-57
2021/09/11 21:43:58;;;;;;;9.38;5.25;;;16.20;99.90;;;;;;10376777;28;20069;-58
2021/09/11 21:48:59;;;;;;;18.42;5.82;;;16.20;99.90;;;;;;10376535;28;20097;-60
2021/09/11 21:54:01;;;;;;;12.57;6.13;;;16.20;99.90;;;;;;10376056;28;20053;-59
2021/09/11 21:59:03;;;;;;;10.63;5.63;;;16.10;99.90;;;;;;10375774;28;20073;-58
2021/09/11 22:04:05;;;;;;;12.23;5.38;;;16.10;99.90;;;;;;10377260;28;20099;-57
2021/09/11 22:09:06;;;;;;;10.70;5.28;;;16.00;99.90;;;;;;10374124;28;20034;-58
2021/09/11 22:14:40;;;;;;;15.50;7.80;;;16.00;99.90;;;;;;10373462;23;20053;-93
2021/09/11 22:20:33;;;;;;;12.68;8.20;;;15.90;99.90;;;;;;10079514;28;20041;-93
2021/09/11 22:26:30;;;;;;;17.83;11.25;;;15.80;99.90;;;;;;9975934;28;20065;-93
2021/09/11 22:31:56;;;;;;;15.55;9.43;;;15.80;99.90;;;;;;10210686;28;20058;-87
2021/09/11 22:36:58;;;;;;;15.27;8.85;;;15.70;99.90;;;;;;10358865;28;20057;-88
2021/09/11 22:41:59;;;;;;;17.95;8.88;;;15.70;99.90;;;;;;10318228;28;20717;-88
2021/09/11 22:47:02;;;;;;;16.35;7.82;;;15.60;99.90;;;;;;10318918;28;20046;-88
2021/09/11 22:52:04;;;;;;;12.95;7.85;;;15.60;99.90;;;;;;10301360;28;20046;-88
2021/09/11 22:57:05;;;;;;;12.18;6.80;;;15.50;99.90;;;;;;10301145;28;20105;-88
2021/09/11 23:02:11;;;;;;;15.00;7.55;;;15.50;99.90;;;;;;10331697;28;20050;-88
2021/09/11 23:07:13;;;;;;;15.05;8.45;;;15.40;99.90;;;;;;10332997;28;20050;-87
2021/09/11 23:12:15;;;;;;;15.77;8.15;;;15.40;99.90;;;;;;10325011;28;20097;-87
2021/09/11 23:17:17;;;;;;;14.13;6.82;;;15.40;99.90;;;;;;10294016;28;20039;-87
2021/09/11 23:22:22;;;;;;;8.80;6.32;;;15.20;99.90;;;;;;10316756;28;20070;-87
2021/09/11 23:27:24;;;;;;;11.43;7.38;;;15.30;99.90;;;;;;10295372;28;20085;-87
2021/09/11 23:32:33;;;;;;;11.88;6.85;;;15.20;99.90;;;;;;10291567;28;20057;-87
2021/09/11 23:37:35;;;;;;;13.05;7.10;;;15.20;99.90;;;;;;10305293;28;20050;-87
2021/09/11 23:42:37;;;;;;;11.75;6.18;;;15.10;99.90;;;;;;10327423;28;20054;-87
2021/09/11 23:47:39;;;;;;;10.65;5.97;;;15.10;99.90;;;;;;10317113;28;20046;-87
2021/09/11 23:52:42;;;;;;;18.67;5.85;;;15.10;99.90;;;;;;10300012;28;20077;-87
2021/09/11 23:57:44;;;;;;;12.32;5.45;;;15.00;99.90;;;;;;10330211;28;20382;-87
